createdAt,value
2017-12-23T00:00:35.146Z,87.67
2017-12-23T00:01:45.270Z,88.24
2017-12-23T00:02:55.393Z,88.15
2017-12-23T00:04:06.543Z,88.24
2017-12-23T00:05:16.769Z,88.05
2017-12-23T00:06:27.104Z,88.05
2017-12-23T00:07:37.371Z,88.15
2017-12-23T00:08:47.504Z,87.95
2017-12-23T00:09:57.499Z,87.76
2017-12-23T00:11:07.636Z,88.05
2017-12-23T00:12:17.491Z,87.95
2017-12-23T00:13:27.350Z,88.24
2017-12-23T00:14:37.487Z,88.15
2017-12-23T00:15:47.621Z,87.95
2017-12-23T00:16:57.722Z,88.05
2017-12-23T00:18:07.972Z,87.76
2017-12-23T00:19:17.899Z,88.05
2017-12-23T00:20:28.121Z,88.24
2017-12-23T00:21:38.264Z,88.24
2017-12-23T00:22:48.416Z,87.95
2017-12-23T00:23:58.305Z,87.76
2017-12-23T00:25:08.530Z,87.86
2017-12-23T00:26:18.640Z,87.86
2017-12-23T00:27:28.750Z,87.86
2017-12-23T00:28:38.888Z,87.86
2017-12-23T00:29:49.005Z,87.95
2017-12-23T00:30:58.898Z,87.95
2017-12-23T00:32:09.085Z,88.05
2017-12-23T00:33:19.268Z,88.24
2017-12-23T00:34:29.488Z,87.86
2017-12-23T00:35:39.033Z,87.95
2017-12-23T00:36:48.891Z,88.15
2017-12-23T00:37:59.077Z,87.95
2017-12-23T00:39:09.188Z,88.24
2017-12-23T00:40:19.041Z,87.76
2017-12-23T00:41:29.181Z,88.05
2017-12-23T00:42:39.359Z,87.95
2017-12-23T00:43:49.469Z,88.05
2017-12-23T00:44:59.634Z,88.15
2017-12-23T00:46:09.745Z,88.05
2017-12-23T00:47:19.885Z,88.05
2017-12-23T00:48:30.036Z,88.24
2017-12-23T00:49:40.238Z,88.05
2017-12-23T00:50:50.196Z,88.24
2017-12-23T00:52:00.333Z,88.24
2017-12-23T00:53:10.550Z,88.05
2017-12-23T00:54:20.401Z,87.86
2017-12-23T00:55:30.517Z,88.05
2017-12-23T00:56:40.697Z,88.05
2017-12-23T00:57:50.819Z,88.05
2017-12-23T00:59:00.928Z,88.34
2017-12-23T01:00:11.049Z,87.86
2017-12-23T01:01:20.894Z,88.24
2017-12-23T01:02:30.763Z,87.86
2017-12-23T01:03:40.873Z,88.24
2017-12-23T01:04:50.989Z,88.24
2017-12-23T01:06:00.901Z,88.15
2017-12-23T01:07:11.015Z,88.15
2017-12-23T01:08:21.123Z,87.86
2017-12-23T01:09:31.289Z,87.86
2017-12-23T01:10:41.545Z,88.24
2017-12-23T01:11:51.407Z,88.05
2017-12-23T01:13:01.510Z,88.05
2017-12-23T01:14:11.616Z,87.67
2017-12-23T01:15:21.509Z,88.24
2017-12-23T01:16:31.367Z,88.43
2017-12-23T01:17:42.499Z,87.67
2017-12-23T01:18:52.686Z,87.86
2017-12-23T01:20:02.789Z,88.05
2017-12-23T01:21:12.931Z,87.95
2017-12-23T01:22:23.128Z,87.95
2017-12-23T01:23:33.026Z,87.86
2017-12-23T01:24:43.275Z,88.24
2017-12-23T01:25:53.525Z,88.05
2017-12-23T01:27:03.678Z,88.24
2017-12-23T01:28:13.844Z,88.24
2017-12-23T01:29:23.960Z,87.95
2017-12-23T01:30:34.174Z,88.15
2017-12-23T01:31:44.410Z,88.24
2017-12-23T01:32:54.533Z,87.95
2017-12-23T01:34:04.664Z,88.34
2017-12-23T01:35:15.754Z,88.24
2017-12-23T01:36:25.606Z,88.34
2017-12-23T01:37:35.455Z,88.24
2017-12-23T01:38:45.620Z,87.76
2017-12-23T01:39:55.463Z,87.86
2017-12-23T01:41:05.591Z,87.76
2017-12-23T01:42:15.718Z,87.57
2017-12-23T01:43:26.546Z,87.57
2017-12-23T01:44:36.649Z,87.86
2017-12-23T01:45:46.781Z,87.86
2017-12-23T01:46:56.533Z,88.15
2017-12-23T01:48:06.386Z,88.05
2017-12-23T01:49:16.399Z,87.76
2017-12-23T01:50:26.513Z,87.95
2017-12-23T01:51:36.380Z,87.67
2017-12-23T01:52:46.235Z,87.95
2017-12-23T01:53:56.350Z,87.95
2017-12-23T01:55:06.564Z,87.67
2017-12-23T01:56:16.353Z,88.05
2017-12-23T01:57:26.483Z,87.86
2017-12-23T01:58:36.678Z,88.1
2017-12-23T01:59:46.535Z,88.29
2017-12-23T02:00:56.662Z,88.01
2017-12-23T02:02:06.807Z,88.34
2017-12-23T02:03:16.901Z,88.39
2017-12-23T02:04:27.098Z,87.91
2017-12-23T02:05:38.219Z,88.01
2017-12-23T02:06:48.335Z,88.1
2017-12-23T02:07:58.448Z,87.91
2017-12-23T02:09:08.320Z,88.2
2017-12-23T02:10:18.443Z,88.2
2017-12-23T02:11:28.290Z,88.1
2017-12-23T02:12:38.470Z,88.29
2017-12-23T02:13:48.361Z,88.1
2017-12-23T02:14:58.453Z,88.39
2017-12-23T02:16:08.315Z,88.39
2017-12-23T02:17:18.409Z,88.1
2017-12-23T02:18:28.509Z,88.01
2017-12-23T02:19:38.689Z,88.48
2017-12-23T02:20:48.568Z,88.1
2017-12-23T02:21:58.698Z,88.48
2017-12-23T02:23:08.899Z,88.57
2017-12-23T02:24:19.033Z,88.1
2017-12-23T02:25:29.141Z,88.29
2017-12-23T02:26:39.283Z,88.39
2017-12-23T02:27:49.131Z,88.39
2017-12-23T02:28:59.237Z,88.67
2017-12-23T02:30:09.354Z,88.67
2017-12-23T02:31:19.482Z,88.76
2017-12-23T02:32:29.596Z,88.86
2017-12-23T02:33:39.751Z,88.86
2017-12-23T02:34:49.866Z,88.57
2017-12-23T02:36:00.006Z,89.14
2017-12-23T02:37:10.159Z,89.24
2017-12-23T02:38:20.316Z,89.24
2017-12-23T02:39:30.260Z,89.33
2017-12-23T02:40:40.371Z,89.72
2017-12-23T02:41:50.540Z,89.53
2017-12-23T02:43:00.780Z,89.72
2017-12-23T02:44:10.623Z,89.53
2017-12-23T02:45:20.760Z,90
2017-12-23T02:46:30.679Z,89.72
2017-12-23T02:47:40.796Z,89.53
2017-12-23T02:48:50.916Z,89.62
2017-12-23T02:50:00.767Z,89.95
2017-12-23T02:51:10.905Z,90.19
2017-12-23T02:52:21.136Z,90.19
2017-12-23T02:53:31.344Z,89.72
2017-12-23T02:54:41.553Z,89.43
2017-12-23T02:55:51.753Z,89.39
2017-12-23T02:57:02.007Z,89.86
2017-12-23T02:58:12.229Z,90.05
2017-12-23T02:59:22.340Z,90.14
2017-12-23T03:00:32.563Z,90
2017-12-23T03:01:42.447Z,89.58
2017-12-23T03:02:52.600Z,89.58
2017-12-23T03:04:02.335Z,90.38
2017-12-23T03:05:12.457Z,90.24
2017-12-23T03:06:22.570Z,90.19
2017-12-23T03:07:32.500Z,90.71
2017-12-23T03:08:42.740Z,90.52
2017-12-23T03:09:52.876Z,90.33
2017-12-23T03:11:03.005Z,91.09
2017-12-23T03:12:13.177Z,91
2017-12-23T03:13:23.278Z,90.81
2017-12-23T03:14:33.490Z,91
2017-12-23T03:15:43.678Z,91.19
2017-12-23T03:16:53.521Z,91.38
2017-12-23T03:18:03.632Z,91.56
2017-12-23T03:19:13.471Z,91.38
2017-12-23T03:20:23.615Z,91.47
2017-12-23T03:21:33.747Z,91.85
2017-12-23T03:22:43.606Z,91.85
2017-12-23T03:23:53.699Z,91.56
2017-12-23T03:25:03.849Z,92.33
2017-12-23T03:26:14.017Z,91.94
2017-12-23T03:27:24.455Z,92.14
2017-12-23T03:28:34.564Z,92.04
2017-12-23T03:29:44.720Z,92.23
2017-12-23T03:30:54.949Z,92.23
2017-12-23T03:32:05.115Z,92.71
2017-12-23T03:33:15.212Z,92.52
2017-12-23T03:34:25.331Z,92.42
2017-12-23T03:35:35.443Z,92.23
2017-12-23T03:36:47.161Z,92.42
2017-12-23T03:37:57.302Z,92.71
2017-12-23T03:39:07.426Z,92.8
2017-12-23T03:40:17.538Z,92.61
2017-12-23T03:41:27.645Z,92.8
2017-12-23T03:42:37.806Z,93.18
2017-12-23T03:43:47.328Z,92.99
2017-12-23T03:44:57.428Z,93.18
2017-12-23T03:46:07.524Z,92.99
2017-12-23T03:47:17.379Z,93.08
2017-12-23T03:48:27.524Z,93.18
2017-12-23T03:49:37.734Z,93.18
2017-12-23T03:50:48.843Z,92.99
2017-12-23T03:51:59.658Z,93.37
2017-12-23T03:53:09.769Z,93.08
2017-12-23T03:54:19.876Z,93.18
2017-12-23T03:55:30.021Z,93.04
2017-12-23T03:56:40.311Z,93.13
2017-12-23T03:57:50.431Z,93.08
2017-12-23T03:59:00.558Z,93.08
2017-12-23T04:00:10.711Z,92.75
2017-12-23T04:01:20.874Z,93.04
2017-12-23T04:02:30.732Z,93.04
2017-12-23T04:03:40.859Z,93.13
2017-12-23T04:04:51.718Z,93.04
2017-12-23T04:06:01.837Z,92.85
2017-12-23T04:07:11.993Z,92.94
2017-12-23T04:08:22.099Z,93.04
2017-12-23T04:09:32.237Z,93.23
2017-12-23T04:10:42.469Z,93.23
2017-12-23T04:11:52.613Z,93.23
2017-12-23T04:13:02.720Z,92.66
2017-12-23T04:14:12.837Z,93.13
2017-12-23T04:15:22.942Z,92.94
2017-12-23T04:16:33.075Z,93.41
2017-12-23T04:17:43.452Z,93.23
2017-12-23T04:18:53.715Z,92.94
2017-12-23T04:20:03.864Z,92.94
2017-12-23T04:21:14.029Z,93.23
2017-12-23T04:22:23.896Z,92.37
2017-12-23T04:23:34.002Z,92.37
2017-12-23T04:24:44.228Z,92.47
2017-12-23T04:25:54.130Z,92.47
2017-12-23T04:27:04.276Z,92.47
2017-12-23T04:28:14.393Z,92.09
2017-12-23T04:29:24.506Z,92.37
2017-12-23T04:30:34.770Z,92.28
2017-12-23T04:31:44.882Z,92.56
2017-12-23T04:32:55.014Z,92.56
2017-12-23T04:34:05.134Z,92.47
2017-12-23T04:35:15.255Z,92.37
2017-12-23T04:36:25.402Z,92.47
2017-12-23T04:37:35.283Z,92.47
2017-12-23T04:38:45.424Z,92.28
2017-12-23T04:39:55.419Z,92.47
2017-12-23T04:41:05.381Z,92.37
2017-12-23T04:42:15.488Z,92.85
2017-12-23T04:43:25.583Z,92.94
2017-12-23T04:44:35.710Z,92.94
2017-12-23T04:45:45.821Z,92.85
2017-12-23T04:46:55.972Z,92.94
2017-12-23T04:48:06.086Z,92.75
2017-12-23T04:49:15.951Z,93.13
2017-12-23T04:50:26.138Z,93.13
2017-12-23T04:51:36.363Z,93.13
2017-12-23T04:52:46.589Z,92.94
2017-12-23T04:53:56.373Z,92.75
2017-12-23T04:55:06.491Z,93.04
2017-12-23T04:56:16.608Z,92.85
2017-12-23T04:57:26.740Z,92.75
2017-12-23T04:58:36.868Z,92.94
2017-12-23T04:59:46.973Z,93.32
2017-12-23T05:00:57.126Z,92.94
2017-12-23T05:02:07.220Z,92.94
2017-12-23T05:03:17.322Z,92.94
2017-12-23T05:04:27.184Z,92.94
2017-12-23T05:05:37.310Z,93.13
2017-12-23T05:06:47.410Z,92.85
2017-12-23T05:07:57.247Z,92.85
2017-12-23T05:09:07.102Z,92.99
2017-12-23T05:10:17.222Z,92.9
2017-12-23T05:11:27.346Z,92.99
2017-12-23T05:12:37.491Z,92.9
2017-12-23T05:13:47.585Z,93.18
2017-12-23T05:14:57.679Z,92.99
2017-12-23T05:16:07.834Z,93.27
2017-12-23T05:17:17.943Z,92.71
2017-12-23T05:18:28.152Z,92.71
2017-12-23T05:19:38.302Z,93.27
2017-12-23T05:20:48.416Z,93.37
2017-12-23T05:21:58.596Z,92.99
2017-12-23T05:23:08.700Z,92.71
2017-12-23T05:24:18.678Z,92.8
2017-12-23T05:25:28.845Z,92.8
2017-12-23T05:26:38.955Z,92.99
2017-12-23T05:27:48.808Z,92.99
2017-12-23T05:28:59.308Z,92.9
2017-12-23T05:30:08.936Z,92.99
2017-12-23T05:31:19.065Z,92.9
2017-12-23T05:32:29.182Z,92.8
2017-12-23T05:33:39.076Z,92.99
2017-12-23T05:34:49.202Z,93.08
2017-12-23T05:35:59.097Z,93.18
2017-12-23T05:37:09.206Z,92.71
2017-12-23T05:38:19.359Z,92.71
2017-12-23T05:39:29.207Z,92.42
2017-12-23T05:40:39.074Z,92.71
2017-12-23T05:41:49.263Z,93.18
2017-12-23T05:42:59.364Z,92.9
2017-12-23T05:44:09.465Z,92.9
2017-12-23T05:45:19.458Z,92.8
2017-12-23T05:46:29.564Z,92.99
2017-12-23T05:47:39.830Z,92.8
2017-12-23T05:48:49.970Z,92.8
2017-12-23T05:50:00.228Z,92.99
2017-12-23T05:51:10.365Z,92.8
2017-12-23T05:52:20.576Z,92.8
2017-12-23T05:53:30.785Z,93.08
2017-12-23T05:54:40.700Z,93.08
2017-12-23T05:55:50.825Z,93.08
2017-12-23T05:57:01.217Z,92.99
2017-12-23T05:58:11.318Z,92.8
2017-12-23T05:59:22.425Z,92.99
2017-12-23T06:00:32.381Z,92.8
2017-12-23T06:01:42.477Z,92.8
2017-12-23T06:02:52.578Z,92.42
2017-12-23T06:04:02.751Z,93.27
2017-12-23T06:05:12.915Z,92.51
2017-12-23T06:06:23.094Z,93.27
2017-12-23T06:07:32.990Z,93.08
2017-12-23T06:08:43.230Z,92.42
2017-12-23T06:09:53.346Z,93.27
2017-12-23T06:11:03.433Z,93.32
2017-12-23T06:12:13.539Z,92.94
2017-12-23T06:13:23.677Z,93.23
2017-12-23T06:14:33.797Z,92.85
2017-12-23T06:15:43.558Z,93.13
2017-12-23T06:16:53.642Z,93.23
2017-12-23T06:18:03.518Z,92.75
2017-12-23T06:19:13.406Z,93.13
2017-12-23T06:20:23.539Z,93.32
2017-12-23T06:21:33.645Z,93.04
2017-12-23T06:22:43.795Z,93.04
2017-12-23T06:23:53.924Z,92.94
2017-12-23T06:25:03.776Z,93.04
2017-12-23T06:26:13.870Z,92.85
2017-12-23T06:27:24.065Z,92.94
2017-12-23T06:28:33.917Z,92.85
2017-12-23T06:29:44.062Z,92.85
2017-12-23T06:30:54.163Z,92.85
2017-12-23T06:32:04.283Z,93.04
2017-12-23T06:33:13.874Z,93.04
2017-12-23T06:34:24.061Z,92.94
2017-12-23T06:35:34.050Z,93.23
2017-12-23T06:36:44.200Z,93.23
2017-12-23T06:37:54.309Z,93.32
2017-12-23T06:39:04.448Z,93.04
2017-12-23T06:40:14.622Z,92.85
2017-12-23T06:41:24.746Z,93.04
2017-12-23T06:42:34.353Z,92.94
2017-12-23T06:43:43.945Z,92.94
2017-12-23T06:44:54.061Z,93.04
2017-12-23T06:46:04.195Z,92.85
2017-12-23T06:47:14.304Z,92.85
2017-12-23T06:48:24.147Z,92.85
2017-12-23T06:49:34.351Z,93.13
2017-12-23T06:50:44.200Z,93.51
2017-12-23T06:51:54.322Z,93.51
2017-12-23T06:53:04.425Z,93.51
2017-12-23T06:54:14.627Z,93.41
2017-12-23T06:55:24.763Z,93.6
2017-12-23T06:56:34.974Z,93.41
2017-12-23T06:57:45.136Z,93.51
2017-12-23T06:58:54.996Z,93.6
2017-12-23T07:00:05.186Z,93.51
2017-12-23T07:01:15.319Z,93.13
2017-12-23T07:02:25.523Z,93.04
2017-12-23T07:03:35.381Z,92.85
2017-12-23T07:04:45.563Z,92.85
2017-12-23T07:05:55.873Z,92.94
2017-12-23T07:07:06.097Z,92.85
2017-12-23T07:08:15.957Z,93.04
2017-12-23T07:09:26.082Z,92.94
2017-12-23T07:10:37.287Z,92.94
2017-12-23T07:11:47.399Z,93.23
2017-12-23T07:12:57.664Z,93.13
2017-12-23T07:14:07.772Z,93.04
2017-12-23T07:15:17.911Z,93.32
2017-12-23T07:16:28.071Z,92.75
2017-12-23T07:17:38.183Z,92.75
2017-12-23T07:18:48.345Z,93.04
2017-12-23T07:19:58.487Z,93.23
2017-12-23T07:21:08.319Z,92.56
2017-12-23T07:22:18.452Z,92.46
2017-12-23T07:23:28.639Z,92.75
2017-12-23T07:24:38.907Z,93.23
2017-12-23T07:25:49.073Z,92.99
2017-12-23T07:26:59.293Z,92.61
2017-12-23T07:28:09.428Z,92.51
2017-12-23T07:29:19.555Z,92.41
2017-12-23T07:30:29.456Z,92.61
2017-12-23T07:31:39.729Z,93.18
2017-12-23T07:32:49.861Z,92.8
2017-12-23T07:33:59.739Z,93.08
2017-12-23T07:35:10.831Z,93.08
2017-12-23T07:36:21.061Z,93.08
2017-12-23T07:37:31.203Z,92.99
2017-12-23T07:38:41.487Z,93.37
2017-12-23T07:39:51.741Z,93.37
2017-12-23T07:41:01.887Z,93.27
2017-12-23T07:42:12.001Z,92.89
2017-12-23T07:43:21.777Z,93.65
2017-12-23T07:44:31.892Z,93.46
2017-12-23T07:45:42.018Z,93.55
2017-12-23T07:46:51.877Z,93.37
2017-12-23T07:48:01.985Z,93.27
2017-12-23T07:49:12.110Z,93.27
2017-12-23T07:50:22.012Z,93.27
2017-12-23T07:51:32.227Z,93.37
2017-12-23T07:52:42.368Z,93.46
2017-12-23T07:53:52.614Z,93.27
2017-12-23T07:55:02.746Z,93.08
2017-12-23T07:56:12.638Z,93.46
2017-12-23T07:57:23.724Z,93.75
2017-12-23T07:58:34.825Z,93.37
2017-12-23T07:59:45.013Z,93.37
2017-12-23T08:00:55.222Z,93.65
2017-12-23T08:02:05.414Z,93.55
2017-12-23T08:03:15.548Z,93.37
2017-12-23T08:04:25.740Z,93.94
2017-12-23T08:05:35.870Z,94.03
2017-12-23T08:06:45.994Z,94.13
2017-12-23T08:07:56.094Z,93.94
2017-12-23T08:09:06.250Z,93.84
2017-12-23T08:10:16.386Z,94.13
2017-12-23T08:11:26.491Z,94.03
2017-12-23T08:12:36.694Z,94.03
2017-12-23T08:13:46.829Z,94.13
2017-12-23T08:14:56.995Z,94.13
2017-12-23T08:16:06.912Z,94.03
2017-12-23T08:17:16.714Z,93.94
2017-12-23T08:18:26.823Z,94.22
2017-12-23T08:19:36.952Z,94.03
2017-12-23T08:20:46.813Z,94.42
2017-12-23T08:21:56.962Z,94.79
2017-12-23T08:23:07.092Z,94.6
2017-12-23T08:24:17.308Z,95.08
2017-12-23T08:25:27.479Z,94.89
2017-12-23T08:26:37.673Z,94.6
2017-12-23T08:27:47.924Z,94.79
2017-12-23T08:28:58.042Z,95.08
2017-12-23T08:30:08.146Z,94.79
2017-12-23T08:31:18.305Z,95.56
2017-12-23T08:32:28.481Z,95.94
2017-12-23T08:33:38.711Z,94.84
2017-12-23T08:34:48.881Z,95.41
2017-12-23T08:35:59.072Z,95.84
2017-12-23T08:37:09.196Z,95.79
2017-12-23T08:38:19.411Z,95.46
2017-12-23T08:39:29.414Z,95.6
2017-12-23T08:40:39.577Z,95.75
2017-12-23T08:41:49.677Z,95.89
2017-12-23T08:42:59.904Z,95.79
2017-12-23T08:44:10.025Z,95.79
2017-12-23T08:45:20.159Z,95.84
2017-12-23T08:46:29.913Z,96.08
2017-12-23T08:47:40.016Z,95.89
2017-12-23T08:48:50.149Z,95.51
2017-12-23T08:50:00.005Z,96.31
2017-12-23T08:51:10.137Z,95.79
2017-12-23T08:52:20.017Z,95.7
2017-12-23T08:53:30.124Z,95.7
2017-12-23T08:54:40.298Z,96.26
2017-12-23T08:55:50.424Z,95.41
2017-12-23T08:57:00.544Z,95.7
2017-12-23T08:58:10.782Z,95.79
2017-12-23T08:59:20.554Z,95.98
2017-12-23T09:00:30.729Z,95.79
2017-12-23T09:01:40.647Z,96.08
2017-12-23T09:02:50.501Z,96.55
2017-12-23T09:04:00.629Z,96.17
2017-12-23T09:05:10.501Z,96.36
2017-12-23T09:06:20.609Z,95.79
2017-12-23T09:07:30.734Z,95.7
2017-12-23T09:08:40.871Z,95.51
2017-12-23T09:09:51.003Z,95.51
2017-12-23T09:11:01.187Z,95.89
2017-12-23T09:12:11.554Z,95.7
2017-12-23T09:13:21.722Z,95.7
2017-12-23T09:14:31.889Z,95.98
2017-12-23T09:15:42.145Z,95.98
2017-12-23T09:16:52.285Z,95.6
2017-12-23T09:18:02.401Z,95.89
2017-12-23T09:19:12.520Z,95.7
2017-12-23T09:20:22.658Z,95.98
2017-12-23T09:21:32.833Z,95.98
2017-12-23T09:22:43.024Z,95.51
2017-12-23T09:23:53.194Z,95.51
2017-12-23T09:25:03.342Z,95.51
2017-12-23T09:26:13.291Z,95.6
2017-12-23T09:27:23.450Z,95.7
2017-12-23T09:28:33.315Z,95.51
2017-12-23T09:29:43.465Z,95.6
2017-12-23T09:30:53.609Z,95.7
2017-12-23T09:32:03.882Z,95.7
2017-12-23T09:33:14.296Z,95.6
2017-12-23T09:34:24.415Z,95.89
2017-12-23T09:35:34.198Z,94.93
2017-12-23T09:36:44.375Z,95.12
2017-12-23T09:37:54.488Z,94.65
2017-12-23T09:39:04.604Z,94.93
2017-12-23T09:40:14.477Z,95.03
2017-12-23T09:41:24.649Z,94.74
2017-12-23T09:42:34.793Z,95.12
2017-12-23T09:43:45.030Z,94.98
2017-12-23T09:44:55.235Z,94.98
2017-12-23T09:46:05.518Z,94.08
2017-12-23T09:47:15.634Z,94.32
2017-12-23T09:48:25.795Z,94.03
2017-12-23T09:49:35.695Z,94.32
2017-12-23T09:50:45.929Z,94.03
2017-12-23T09:51:56.117Z,93.94
2017-12-23T09:53:06.274Z,94.13
2017-12-23T09:54:16.396Z,94.03
2017-12-23T09:55:26.529Z,93.94
2017-12-23T09:56:36.661Z,94.03
2017-12-23T09:57:46.812Z,94.22
2017-12-23T09:58:56.680Z,94.13
2017-12-23T10:00:06.615Z,94.42
2017-12-23T10:01:16.973Z,93.65
2017-12-23T10:02:27.183Z,93.74
2017-12-23T10:03:37.519Z,92.99
2017-12-23T10:04:47.654Z,93.65
2017-12-23T10:05:57.535Z,93.65
2017-12-23T10:07:07.643Z,93.37
2017-12-23T10:08:17.809Z,93.55
2017-12-23T10:09:27.664Z,93.37
2017-12-23T10:10:37.980Z,93.37
2017-12-23T10:11:48.108Z,93.46
2017-12-23T10:12:58.222Z,93.46
2017-12-23T10:14:08.317Z,93.37
2017-12-23T10:15:18.427Z,93.46
2017-12-23T10:16:28.547Z,93.46
2017-12-23T10:17:38.669Z,93.37
2017-12-23T10:18:48.818Z,93.37
2017-12-23T10:19:59.091Z,92.99
2017-12-23T10:21:09.225Z,93.65
2017-12-23T10:22:19.506Z,93.46
2017-12-23T10:23:30.752Z,93.46
2017-12-23T10:24:40.980Z,93.46
2017-12-23T10:25:50.895Z,93.55
2017-12-23T10:27:01.023Z,93.46
2017-12-23T10:28:11.149Z,93.37
2017-12-23T10:29:21.267Z,93.37
2017-12-23T10:30:31.593Z,93.37
2017-12-23T10:31:41.727Z,92.99
2017-12-23T10:32:51.865Z,93.37
2017-12-23T10:34:01.718Z,93.46
2017-12-23T10:35:11.915Z,93.46
2017-12-23T10:36:22.036Z,93.46
2017-12-23T10:37:32.183Z,93.27
2017-12-23T10:38:42.292Z,93.41
2017-12-23T10:39:52.416Z,93.46
2017-12-23T10:41:02.187Z,92.99
2017-12-23T10:42:12.391Z,93.32
2017-12-23T10:43:22.610Z,93.03
2017-12-23T10:44:32.856Z,93.13
2017-12-23T10:45:43.004Z,93.6
2017-12-23T10:46:54.198Z,92.94
2017-12-23T10:48:04.349Z,92.46
2017-12-23T10:49:14.712Z,93.32
2017-12-23T10:50:24.872Z,92.46
2017-12-23T10:51:35.068Z,92.46
2017-12-23T10:52:44.887Z,92.65
2017-12-23T10:53:55.215Z,92.65
2017-12-23T10:55:05.329Z,93.32
2017-12-23T10:56:15.464Z,93.13
2017-12-23T10:57:25.701Z,93.13
2017-12-23T10:58:35.916Z,93.03
2017-12-23T10:59:45.805Z,92.94
2017-12-23T11:00:55.617Z,92.84
2017-12-23T11:02:05.739Z,93.22
2017-12-23T11:03:15.829Z,93.03
2017-12-23T11:04:25.982Z,93.13
2017-12-23T11:05:36.396Z,93.03
2017-12-23T11:06:46.282Z,93.51
2017-12-23T11:07:56.151Z,93.6
2017-12-23T11:09:06.275Z,93.03
2017-12-23T11:10:16.400Z,93.51
2017-12-23T11:11:26.524Z,93.41
2017-12-23T11:12:36.667Z,93.7
2017-12-23T11:13:46.432Z,93.41
2017-12-23T11:14:56.595Z,93.6
2017-12-23T11:16:06.785Z,93.03
2017-12-23T11:17:16.996Z,93.03
2017-12-23T11:18:27.123Z,93.03
2017-12-23T11:19:37.022Z,93.22
2017-12-23T11:20:47.168Z,93.32
2017-12-23T11:21:57.294Z,93.22
2017-12-23T11:23:07.580Z,93.41
2017-12-23T11:24:17.751Z,93.03
2017-12-23T11:25:28.054Z,93.22
2017-12-23T11:26:37.954Z,93.32
2017-12-23T11:27:48.155Z,92.51
2017-12-23T11:28:58.321Z,92.46
2017-12-23T11:30:09.400Z,92.36
2017-12-23T11:31:19.610Z,92.65
2017-12-23T11:32:29.804Z,92.46
2017-12-23T11:33:40.065Z,92.46
2017-12-23T11:34:50.329Z,92.18
2017-12-23T11:36:00.714Z,92.36
2017-12-23T11:37:10.838Z,92.18
2017-12-23T11:38:20.988Z,92.08
2017-12-23T11:39:31.187Z,92.27
2017-12-23T11:40:41.329Z,91.94
2017-12-23T11:41:51.232Z,91.94
2017-12-23T11:43:01.378Z,91.99
2017-12-23T11:44:11.233Z,92.36
2017-12-23T11:45:21.350Z,92.03
2017-12-23T11:46:31.550Z,92.22
2017-12-23T11:47:41.756Z,91.94
2017-12-23T11:48:52.098Z,91.94
2017-12-23T11:50:02.353Z,92.27
2017-12-23T11:51:12.590Z,92.27
2017-12-23T11:52:22.388Z,92.36
2017-12-23T11:53:32.521Z,91.99
2017-12-23T11:54:42.651Z,92.08
2017-12-23T11:55:52.773Z,91.99
2017-12-23T11:57:02.744Z,92.74
2017-12-23T11:58:12.929Z,92.7
2017-12-23T11:59:24.075Z,92.6
2017-12-23T12:00:34.228Z,92.36
2017-12-23T12:01:44.553Z,92.41
2017-12-23T12:02:54.756Z,92.41
2017-12-23T12:04:05.054Z,92.51
2017-12-23T12:05:15.293Z,92.03
2017-12-23T12:06:25.506Z,92.41
2017-12-23T12:07:35.627Z,92.41
2017-12-23T12:08:45.513Z,92.55
2017-12-23T12:09:55.514Z,92.36
2017-12-23T12:11:05.725Z,92.32
2017-12-23T12:12:16.817Z,92.41
2017-12-23T12:13:26.954Z,92.41
2017-12-23T12:14:36.903Z,92.7
2017-12-23T12:15:47.136Z,92.51
2017-12-23T12:16:57.288Z,92.51
2017-12-23T12:18:07.152Z,92.7
2017-12-23T12:19:17.322Z,92.51
2017-12-23T12:20:27.495Z,92.7
2017-12-23T12:21:37.742Z,92.7
2017-12-23T12:22:47.899Z,92.6
2017-12-23T12:23:58.015Z,92.51
2017-12-23T12:25:08.026Z,92.13
2017-12-23T12:26:17.936Z,92.13
2017-12-23T12:27:27.682Z,92.7
2017-12-23T12:28:37.567Z,92.13
2017-12-23T12:29:48.981Z,92.22
2017-12-23T12:30:59.102Z,92.22
2017-12-23T12:32:09.404Z,92.18
2017-12-23T12:33:19.536Z,92.13
2017-12-23T12:34:29.656Z,92.08
2017-12-23T12:35:39.894Z,92.27
2017-12-23T12:36:50.059Z,92.03
2017-12-23T12:38:00.308Z,92.03
2017-12-23T12:39:10.685Z,91.94
2017-12-23T12:40:20.964Z,92.22
2017-12-23T12:41:31.114Z,92.03
2017-12-23T12:42:41.328Z,92.13
2017-12-23T12:43:51.497Z,92.03
2017-12-23T12:45:01.632Z,92.13
2017-12-23T12:46:11.681Z,92.13
2017-12-23T12:47:21.791Z,92.13
2017-12-23T12:48:31.927Z,92.41
2017-12-23T12:49:42.054Z,92.22
2017-12-23T12:50:52.171Z,92.32
2017-12-23T12:52:02.403Z,92.36
2017-12-23T12:53:12.521Z,91.99
2017-12-23T12:54:22.423Z,92.51
2017-12-23T12:55:32.547Z,92.36
2017-12-23T12:56:42.665Z,92.46
2017-12-23T12:57:52.577Z,92.55
2017-12-23T12:59:02.705Z,92.46
2017-12-23T13:00:12.823Z,92.36
2017-12-23T13:01:23.033Z,92.55
2017-12-23T13:02:33.160Z,92.46
2017-12-23T13:03:43.316Z,91.99
2017-12-23T13:04:53.470Z,92.55
2017-12-23T13:06:03.353Z,92.27
2017-12-23T13:07:13.479Z,92.27
2017-12-23T13:08:23.652Z,92.27
2017-12-23T13:09:33.808Z,91.99
2017-12-23T13:10:43.931Z,92.18
2017-12-23T13:11:54.103Z,92.18
2017-12-23T13:13:04.249Z,92.27
2017-12-23T13:14:14.435Z,92.36
2017-12-23T13:15:24.659Z,92.08
2017-12-23T13:16:34.883Z,92.36
2017-12-23T13:17:45.101Z,92.55
2017-12-23T13:18:55.277Z,92.27
2017-12-23T13:20:05.445Z,92.27
2017-12-23T13:21:15.606Z,92.36
2017-12-23T13:22:25.739Z,91.99
2017-12-23T13:23:35.924Z,92.36
2017-12-23T13:24:46.059Z,92.46
2017-12-23T13:25:56.033Z,92.46
2017-12-23T13:27:06.267Z,91.99
2017-12-23T13:28:16.466Z,92.27
2017-12-23T13:29:26.678Z,92.27
2017-12-23T13:30:36.551Z,92.08
2017-12-23T13:31:46.715Z,92.18
2017-12-23T13:32:55.969Z,92.27
2017-12-23T13:34:06.185Z,92.08
2017-12-23T13:35:16.430Z,91.89
2017-12-23T13:36:26.661Z,92.08
2017-12-23T13:37:36.524Z,92.36
2017-12-23T13:38:46.701Z,92.08
2017-12-23T13:39:56.825Z,91.99
2017-12-23T13:41:06.940Z,92.36
2017-12-23T13:42:16.846Z,92.74
2017-12-23T13:43:27.057Z,92.65
2017-12-23T13:44:37.198Z,92.74
2017-12-23T13:45:47.433Z,92.46
2017-12-23T13:46:58.668Z,92.55
2017-12-23T13:48:09.087Z,92.74
2017-12-23T13:49:19.631Z,92.84
2017-12-23T13:50:29.160Z,92.65
2017-12-23T13:51:39.019Z,92.65
2017-12-23T13:52:50.220Z,92.65
2017-12-23T13:54:00.381Z,92.36
2017-12-23T13:55:10.326Z,93.22
2017-12-23T13:56:20.487Z,92.84
2017-12-23T13:57:30.372Z,92.84
2017-12-23T13:58:40.511Z,92.94
2017-12-23T13:59:50.656Z,93.03
2017-12-23T14:01:00.814Z,92.65
2017-12-23T14:02:10.674Z,92.46
2017-12-23T14:03:20.524Z,92.65
2017-12-23T14:04:30.376Z,92.55
2017-12-23T14:05:40.263Z,92.46
2017-12-23T14:06:50.503Z,92.84
2017-12-23T14:08:00.698Z,92.55
2017-12-23T14:09:10.869Z,92.74
2017-12-23T14:10:21.115Z,92.65
2017-12-23T14:11:31.412Z,93.03
2017-12-23T14:12:41.285Z,92.84
2017-12-23T14:13:52.403Z,92.36
2017-12-23T14:15:02.557Z,92.36
2017-12-23T14:16:12.721Z,92.46
2017-12-23T14:17:22.592Z,92.65
2017-12-23T14:18:32.743Z,92.84
2017-12-23T14:19:43.025Z,92.65
2017-12-23T14:20:52.901Z,92.65
2017-12-23T14:22:03.128Z,92.65
2017-12-23T14:23:13.255Z,93.32
2017-12-23T14:24:23.434Z,92.84
2017-12-23T14:25:33.558Z,92.84
2017-12-23T14:26:43.689Z,93.22
2017-12-23T14:27:54.051Z,92.94
2017-12-23T14:29:04.208Z,92.65
2017-12-23T14:30:14.351Z,92.65
2017-12-23T14:31:24.668Z,92.94
2017-12-23T14:32:34.821Z,92.55
2017-12-23T14:33:45.022Z,92.36
2017-12-23T14:34:55.186Z,93.41
2017-12-23T14:36:05.440Z,93.22
2017-12-23T14:37:15.695Z,92.46
2017-12-23T14:38:25.865Z,92.36
2017-12-23T14:39:36.071Z,93.13
2017-12-23T14:40:46.010Z,92.27
2017-12-23T14:41:56.328Z,92.65
2017-12-23T14:43:06.521Z,92.74
2017-12-23T14:44:16.666Z,92.65
2017-12-23T14:45:26.789Z,92.84
2017-12-23T14:46:36.955Z,92.27
2017-12-23T14:47:46.774Z,92.65
2017-12-23T14:48:56.885Z,92.84
2017-12-23T14:50:07.013Z,92.74
2017-12-23T14:51:17.165Z,92.55
2017-12-23T14:52:27.322Z,92.55
2017-12-23T14:53:37.506Z,92.55
2017-12-23T14:54:48.654Z,92.74
2017-12-23T14:55:58.519Z,92.74
2017-12-23T14:57:08.652Z,92.08
2017-12-23T14:58:18.813Z,92.27
2017-12-23T14:59:28.949Z,92.18
2017-12-23T15:00:39.071Z,92.27
2017-12-23T15:01:49.203Z,92.46
2017-12-23T15:02:59.316Z,92.36
2017-12-23T15:04:09.459Z,92.36
2017-12-23T15:05:19.573Z,92.08
2017-12-23T15:06:29.752Z,91.7